Time;durP1;ratioP1;P1;durP2;ratioP2;P2;SDS_P1;SDS_P2;PMS_P1;PMS_P2;Temp;Humidity;BMP_temperature;BMP_pressure;BME280_temperature;BME280_humidity;BME280_pressure;Samples;Min_cycle;Max_cycle;Signal;HPM_P1;HPM_P2
2023/05/19 00:01:12;;;;;;;16.95;10.40;;;;;;;7.22;90.09;102632.78;4973452;28;20090;-92
2023/05/19 00:03:47;;;;;;;17.20;9.60;;;;;;;6.71;90.02;102547.31;4973642;28;20035;-91
2023/05/19 00:06:13;;;;;;;21.17;10.52;;;;;;;7.38;90.68;102664.16;4956096;28;20097;-89
2023/05/19 00:08:39;;;;;;;14.82;9.32;;;;;;;7.24;90.41;102636.16;4973693;28;20031;-86
2023/05/19 00:11:05;;;;;;;15.98;9.65;;;;;;;7.27;90.81;102640.38;4973614;28;20027;-91
2023/05/19 00:13:31;;;;;;;15.20;9.30;;;;;;;7.22;91.49;102645.63;4973443;28;20471;-88
2023/05/19 00:15:56;;;;;;;15.73;9.13;;;;;;;7.16;91.85;102627.75;4955638;28;20047;-93
2023/05/19 00:18:22;;;;;;;14.50;9.48;;;;;;;7.16;92.17;102635.44;4973391;28;20114;-85
2023/05/19 00:20:48;;;;;;;15.90;9.15;;;;;;;7.12;92.83;102633.81;4973653;28;20026;-83
2023/05/19 00:23:13;;;;;;;15.15;9.57;;;;;;;7.31;93.31;102647.16;4973625;28;20154;-87
2023/05/19 00:25:39;;;;;;;14.63;8.63;;;;;;;6.42;93.29;102505.09;4973449;28;20062;-86
2023/05/19 00:28:04;;;;;;;17.80;9.18;;;;;;;7.01;94.50;102597.22;4973204;28;20082;-79
2023/05/19 00:30:30;;;;;;;13.20;8.10;;;;;;;7.29;94.25;102638.63;4973269;28;20023;-87
2023/05/19 00:32:55;;;;;;;15.40;9.25;;;;;;;7.08;95.19;102601.34;4973075;28;20085;-86
2023/05/19 00:35:22;;;;;;;14.20;8.43;;;;;;;6.86;95.60;102573.53;4973459;28;20035;-86
2023/05/19 00:37:47;;;;;;;15.88;8.48;;;;;;;6.94;95.37;102581.09;4973487;28;20127;-88
2023/05/19 00:40:13;;;;;;;13.27;7.93;;;;;;;6.84;95.76;102571.88;4973233;28;20516;-89
2023/05/19 00:42:39;;;;;;;13.93;7.78;;;;;;;7.01;95.75;102589.53;4973155;28;20042;-83
2023/05/19 00:45:05;;;;;;;12.23;7.60;;;;;;;7.25;96.42;102627.56;4972979;28;20046;-85
2023/05/19 00:47:30;;;;;;;13.52;8.48;;;;;;;7.25;96.58;102630.13;4973316;28;20030;-86
2023/05/19 00:49:56;;;;;;;12.40;7.60;;;;;;;7.12;96.42;102610.72;4973254;28;20336;-89
2023/05/19 00:52:22;;;;;;;15.48;7.82;;;;;;;7.06;96.70;102595.41;4973296;28;20479;-86
2023/05/19 00:54:47;;;;;;;13.20;7.28;;;;;;;7.11;96.86;102607.28;4973416;28;20030;-90
2023/05/19 00:57:13;;;;;;;12.43;7.95;;;;;;;7.15;97.09;102619.19;4974055;28;20093;-82
2023/05/19 00:59:39;;;;;;;14.95;7.78;;;;;;;7.16;97.26;102627.75;4976419;28;20022;-83
2023/05/19 01:02:05;;;;;;;13.38;8.10;;;;;;;6.98;97.44;102604.97;4976451;28;20054;-87
2023/05/19 01:04:33;;;;;;;13.13;7.60;;;;;;;7.15;97.37;102632.03;4976479;28;20023;-87
2023/05/19 01:06:59;;;;;;;15.32;7.32;;;;;;;7.12;97.62;102632.09;4976367;28;20022;-87
2023/05/19 01:09:25;;;;;;;14.77;7.47;;;;;;;7.09;97.87;102637.31;4976408;28;20083;-85
2023/05/19 01:11:50;;;;;;;14.88;8.20;;;;;;;7.03;98.34;102629.72;4976264;28;20088;-82
2023/05/19 01:14:16;;;;;;;13.20;8.30;;;;;;;7.03;97.87;102628.88;4976218;28;20390;-88
2023/05/19 01:16:49;;;;;;;14.48;7.97;;;;;;;7.01;98.41;102633.19;4976394;28;20058;-88
2023/05/19 01:19:32;;;;;;;14.77;7.80;;;;;;;7.00;98.30;102636.66;4976170;28;20398;-88
2023/05/19 01:22:00;;;;;;;14.88;8.43;;;;;;;6.96;98.65;102628.13;4976060;28;20027;-88
2023/05/19 01:24:57;;;;;;;16.77;7.72;;;;;;;6.94;98.53;102632.47;4976065;28;20508;-85
2023/05/19 01:27:43;;;;;;;15.35;7.88;;;;;;;6.91;99.00;102632.53;4975954;28;20034;-81
2023/05/19 01:30:26;;;;;;;13.70;7.60;;;;;;;6.90;99.13;102633.41;4976137;28;20035;-85
2023/05/19 01:32:55;;;;;;;16.55;7.60;;;;;;;6.90;98.88;102633.41;4976028;28;20031;-88
2023/05/19 01:35:23;;;;;;;13.85;8.07;;;;;;;6.67;98.72;102597.00;4975805;28;20023;-83
2023/05/19 01:37:51;;;;;;;12.45;8.07;;;;;;;6.50;99.16;102572.53;4976180;28;20110;-81
2023/05/19 01:40:20;;;;;;;13.05;8.18;;;;;;;6.43;99.44;102563.22;4975784;28;20046;-84
2023/05/19 01:42:46;;;;;;;15.73;8.68;;;;;;;6.78;99.61;102631.88;4975883;28;20027;-84
2023/05/19 01:45:11;;;;;;;15.45;7.68;;;;;;;6.41;99.80;102572.69;4975811;28;20026;-84
2023/05/19 01:47:41;;;;;;;14.70;8.30;;;;;;;6.77;100.00;102626.78;4975564;28;20065;-83
2023/05/19 01:50:07;;;;;;;17.42;9.82;;;;;;;6.74;100.00;102627.69;4975562;28;20027;-86
2023/05/19 01:52:32;;;;;;;12.68;7.78;;;;;;;6.15;100.00;102532.06;4975876;28;20101;-83
2023/05/19 01:54:58;;;;;;;16.00;8.32;;;;;;;6.68;100.00;102616.66;4975473;28;20513;-89
2023/05/19 01:57:31;;;;;;;15.23;8.15;;;;;;;6.63;100.00;102618.50;4975529;28;20360;-82
2023/05/19 02:00:23;;;;;;;11.23;7.53;;;;;;;6.60;100.00;102617.69;4975500;28;20114;-90
2023/05/19 02:03:03;;;;;;;17.63;8.95;;;;;;;6.59;100.00;102616.00;4975360;28;20019;-92
2023/05/19 02:05:44;;;;;;;14.20;8.43;;;;;;;6.56;100.00;102621.16;4975272;28;20027;-89
2023/05/19 02:08:25;;;;;;;14.88;8.82;;;;;;;6.54;100.00;102614.38;4957270;28;20046;-87
2023/05/19 02:10:57;;;;;;;16.58;9.18;;;;;;;6.52;100.00;102611.84;4975397;28;20019;-88
2023/05/19 02:13:28;;;;;;;15.40;8.38;;;;;;;6.23;100.00;102576.41;4975212;28;20053;-87
2023/05/19 02:15:59;;;;;;;17.92;8.65;;;;;;;6.18;100.00;102572.22;4975226;28;20042;-91
2023/05/19 02:18:28;;;;;;;14.75;8.50;;;;;;;6.45;100.00;102617.94;4975228;28;20442;-88
2023/05/19 02:20:54;;;;;;;11.52;8.82;;;;;;;6.44;100.00;102607.69;4975843;28;20360;-79
2023/05/19 02:23:19;;;;;;;11.05;8.23;;;;;;;6.08;100.00;102551.00;4975021;28;20078;-79
2023/05/19 02:25:45;;;;;;;16.08;9.05;;;;;;;6.37;100.00;102609.50;4974949;28;20027;-79
2023/05/19 02:28:10;;;;;;;15.93;8.38;;;;;;;5.79;100.00;102510.41;4975154;28;20490;-78
2023/05/19 02:30:36;;;;;;;16.80;9.02;;;;;;;6.29;100.00;102594.28;4974953;28;20031;-90
2023/05/19 02:33:01;;;;;;;12.63;9.27;;;;;;;5.90;100.00;102536.78;4974634;28;20030;-88
2023/05/19 02:35:27;;;;;;;15.98;9.00;;;;;;;6.31;100.00;102604.50;4941233;28;20047;-90
2023/05/19 02:37:52;;;;;;;15.57;9.13;;;;;;;6.31;100.00;102600.22;4974554;28;20030;-89
2023/05/19 02:40:18;;;;;;;14.10;8.85;;;;;;;6.31;100.00;102595.09;4974643;28;20126;-90
2023/05/19 02:42:43;;;;;;;17.08;8.57;;;;;;;6.10;100.00;102567.22;4974531;28;20035;-91
2023/05/19 02:45:09;;;;;;;16.70;9.73;;;;;;;6.28;100.00;102596.84;4974639;28;20112;-90
2023/05/19 02:47:35;;;;;;;15.52;9.50;;;;;;;6.18;100.00;102577.34;4974555;28;20119;-90
2023/05/19 02:50:00;;;;;;;16.77;9.30;;;;;;;5.93;100.00;102546.97;4957156;28;20054;-90
2023/05/19 02:52:25;;;;;;;14.60;9.73;;;;;;;6.23;100.00;102594.38;4974604;28;20466;-91
2023/05/19 02:54:51;;;;;;;15.65;9.13;;;;;;;6.11;100.00;102578.34;4957203;28;20462;-89
2023/05/19 02:57:16;;;;;;;16.83;9.85;;;;;;;6.21;100.00;102592.69;4974408;28;20035;-91
2023/05/19 02:59:42;;;;;;;18.40;9.95;;;;;;;5.94;100.00;102556.38;4974625;28;20034;-91
2023/05/19 03:02:07;;;;;;;16.02;9.57;;;;;;;6.05;100.00;102566.44;4974466;28;20382;-91
2023/05/19 03:04:40;;;;;;;14.55;9.73;;;;;;;5.85;100.00;102541.09;4974060;28;20033;-92
2023/05/19 03:07:08;;;;;;;17.67;10.52;;;;;;;5.87;100.00;102549.59;4974214;28;20026;-91
2023/05/19 03:09:34;;;;;;;15.98;9.88;;;;;;;6.07;100.00;102589.50;4974212;28;20038;-90
2023/05/19 03:12:02;;;;;;;16.20;9.88;;;;;;;6.07;100.00;102589.50;4974194;28;20481;-87
2023/05/19 03:14:28;;;;;;;16.90;9.25;;;;;;;6.02;100.00;102584.47;4974114;28;20165;-87
2023/05/19 03:16:54;;;;;;;15.85;9.43;;;;;;;5.60;100.00;102529.50;4974163;28;20114;-88
2023/05/19 03:19:20;;;;;;;16.42;9.80;;;;;;;5.94;100.00;102584.56;4956203;28;20056;-88
2023/05/19 03:21:46;;;;;;;16.75;10.60;;;;;;;5.89;100.00;102585.47;4973825;28;20467;-90
2023/05/19 03:24:11;;;;;;;13.98;9.70;;;;;;;5.96;100.00;102590.50;4974185;28;20029;-89
2023/05/19 03:26:37;;;;;;;17.05;10.25;;;;;;;5.44;100.00;102504.13;4973648;28;20033;-83
2023/05/19 03:29:02;;;;;;;19.25;10.63;;;;;;;5.86;100.00;102575.25;4973898;28;20062;-85
2023/05/19 03:31:29;;;;;;;15.65;10.13;;;;;;;5.25;100.00;102478.81;4973852;28;20022;-90
2023/05/19 03:33:56;;;;;;;17.52;10.15;;;;;;;5.93;100.00;102595.69;4973675;28;20026;-80
2023/05/19 03:36:22;;;;;;;17.75;10.15;;;;;;;5.89;100.00;102600.84;4973738;28;20074;-86
2023/05/19 03:38:48;;;;;;;15.15;9.75;;;;;;;5.65;100.00;102567.03;4973868;28;20031;-84
2023/05/19 03:41:13;;;;;;;17.73;10.18;;;;;;;5.63;100.00;102562.81;4973561;28;20049;-83
2023/05/19 03:43:38;;;;;;;15.20;9.65;;;;;;;5.79;100.00;102605.25;4973921;28;20023;-87
2023/05/19 03:46:06;;;;;;;18.38;10.43;;;;;;;5.69;100.00;102590.88;4973671;28;20085;-86
2023/05/19 03:48:31;;;;;;;20.38;10.93;;;;;;;5.82;100.00;102604.41;4973721;28;20062;-82
2023/05/19 03:50:57;;;;;;;16.17;9.57;;;;;;;5.78;100.00;102600.16;4973490;28;20074;-90
2023/05/19 03:53:22;;;;;;;18.80;11.35;;;;;;;5.72;100.00;102596.00;4973629;28;20027;-87
2023/05/19 03:55:49;;;;;;;18.77;10.95;;;;;;;5.84;100.00;102607.78;4973698;28;20430;-88
2023/05/19 03:58:14;;;;;;;15.80;10.75;;;;;;;5.46;100.00;102542.53;4973557;28;20089;-85
2023/05/19 04:00:40;;;;;;;17.70;10.60;;;;;;;5.87;100.00;102606.00;4973765;28;20031;-85
2023/05/19 04:03:06;;;;;;;14.77;10.25;;;;;;;5.85;100.00;102609.47;4956310;28;20387;-83
2023/05/19 04:05:33;;;;;;;14.65;10.07;;;;;;;5.88;100.00;102604.28;4973509;28;20046;-84
2023/05/19 04:07:58;;;;;;;18.85;10.63;;;;;;;5.68;100.00;102569.53;4954817;28;20046;-90
2023/05/19 04:10:24;;;;;;;17.52;10.05;;;;;;;5.97;100.00;102605.03;4973573;28;20038;-83
2023/05/19 04:12:49;;;;;;;15.73;10.68;;;;;;;6.01;100.00;102604.13;4973487;28;20022;-83
2023/05/19 04:15:14;;;;;;;16.20;11.05;;;;;;;6.07;100.00;102616.00;4973561;28;20043;-82
2023/05/19 04:17:40;;;;;;;18.63;10.90;;;;;;;5.18;100.00;102452.44;4974295;28;20019;-86
2023/05/19 04:20:06;;;;;;;20.02;10.10;;;;;;;5.93;100.00;102562.38;4973398;28;20030;-82
2023/05/19 04:22:31;;;;;;;19.70;10.82;;;;;;;6.23;100.00;102607.19;4973604;28;20063;-87
2023/05/19 04:24:58;;;;;;;16.13;10.55;;;;;;;6.25;100.00;102597.75;4973286;28;20030;-88
2023/05/19 04:27:23;;;;;;;18.42;10.98;;;;;;;6.01;100.00;102557.97;4973366;28;20027;-89
2023/05/19 04:29:48;;;;;;;16.45;9.85;;;;;;;6.41;100.00;102607.75;4973274;28;20557;-88
2023/05/19 04:32:16;;;;;;;17.17;10.40;;;;;;;6.45;100.00;102599.97;4974541;28;20027;-86
2023/05/19 04:34:44;;;;;;;16.02;9.23;;;;;;;6.48;100.00;102593.94;4976905;28;20086;-87
2023/05/19 04:37:13;;;;;;;17.98;10.25;;;;;;;6.38;100.00;102570.16;4959895;28;20051;-91
2023/05/19 04:39:42;;;;;;;18.02;10.20;;;;;;;6.65;100.00;102602.19;4960411;28;20023;-87
2023/05/19 04:42:08;;;;;;;17.23;10.57;;;;;;;6.39;100.00;102550.47;4976812;28;20047;-89
2023/05/19 04:44:36;;;;;;;19.77;10.95;;;;;;;6.56;100.00;102574.13;4976962;28;20015;-90
2023/05/19 04:47:04;;;;;;;21.48;10.55;;;;;;;6.69;100.00;102582.44;4977044;28;20035;-89
2023/05/19 04:49:30;;;;;;;13.93;9.90;;;;;;;6.89;100.00;102606.03;4976884;28;20105;-92
2023/05/19 04:51:56;;;;;;;17.98;10.38;;;;;;;6.94;100.00;102606.78;4976946;28;20454;-89
2023/05/19 04:54:21;;;;;;;15.55;10.60;;;;;;;6.99;100.00;102606.69;4977066;28;20026;-87
2023/05/19 04:56:46;;;;;;;15.82;9.85;;;;;;;7.08;100.00;102599.66;4976710;28;20386;-91
2023/05/19 04:59:12;;;;;;;16.63;10.35;;;;;;;7.03;100.00;102575.78;4976616;28;20479;-91
2023/05/19 05:01:39;;;;;;;17.85;10.50;;;;;;;7.41;100.00;102597.25;4976639;28;20053;-91
2023/05/19 05:04:05;;;;;;;17.48;10.73;;;;;;;8.20;100.00;102607.44;4976461;28;20435;-91
2023/05/19 05:06:32;;;;;;;14.00;10.05;;;;;;;9.70;98.65;102602.41;4976260;28;20051;-85
2023/05/19 05:09:02;;;;;;;14.70;8.70;;;;;;;11.07;88.31;102563.31;4976618;28;20085;-91
2023/05/19 05:11:28;;;;;;;13.83;8.50;;;;;;;12.47;82.05;102600.88;4976599;28;20113;-91
2023/05/19 05:13:56;;;;;;;12.23;7.55;;;;;;;13.24;76.06;102563.81;4976188;28;20149;-90
2023/05/19 05:16:22;;;;;;;12.07;7.55;;;;;;;14.15;71.81;102571.50;4958865;28;20131;-90
2023/05/19 05:18:48;;;;;;;13.85;7.55;;;;;;;14.31;67.92;102512.63;4976464;28;20123;-89
2023/05/19 05:21:14;;;;;;;10.95;6.82;;;;;;;15.31;64.52;102583.63;4958785;28;20137;-91
2023/05/19 05:23:39;;;;;;;14.88;6.88;;;;;;;15.99;62.84;102615.41;4976084;28;20030;-92
2023/05/19 05:26:14;;;;;;;11.45;6.63;;;;;;;16.56;59.78;102597.28;4957924;28;20041;-91
2023/05/19 05:28:45;;;;;;;13.07;6.57;;;;;;;16.45;58.13;102531.88;4976156;28;20066;-92
2023/05/19 05:31:10;;;;;;;10.00;6.22;;;;;;;17.46;54.64;102621.25;4958305;28;20035;-91
2023/05/19 05:33:37;;;;;;;11.50;6.68;;;;;;;17.68;54.55;102607.66;4976138;28;20089;-90
2023/05/19 05:36:03;;;;;;;9.77;6.05;;;;;;;18.03;52.69;102583.63;4976233;28;20427;-90
2023/05/19 05:38:29;;;;;;;10.82;6.25;;;;;;;18.40;51.79;102613.38;4976006;28;20031;-85
2023/05/19 05:40:54;;;;;;;11.18;6.30;;;;;;;18.60;51.67;102618.09;4975730;28;20043;-87
2023/05/19 05:43:19;;;;;;;11.02;5.95;;;;;;;18.56;49.94;102558.22;4975283;28;20030;-89
2023/05/19 05:45:45;;;;;;;11.45;6.13;;;;;;;18.76;48.83;102534.16;4958510;28;20015;-90
2023/05/19 05:48:11;;;;;;;13.07;6.20;;;;;;;19.23;47.99;102599.81;4975993;28;20038;-89
2023/05/19 05:50:38;;;;;;;9.40;6.35;;;;;;;19.19;47.16;102602.66;4975804;28;20041;-92
2023/05/19 05:53:05;;;;;;;11.48;6.15;;;;;;;19.47;47.26;102619.00;4958662;28;20061;-84
2023/05/19 05:55:31;;;;;;;11.45;6.90;;;;;;;19.37;47.21;102571.69;4975890;28;20072;-82
2023/05/19 05:57:57;;;;;;;11.43;6.18;;;;;;;19.67;45.64;102613.19;4975508;28;20109;-83
2023/05/19 06:00:23;;;;;;;9.68;6.60;;;;;;;18.88;47.99;102605.75;4958471;28;20061;-85
2023/05/19 06:02:50;;;;;;;11.40;6.45;;;;;;;18.27;48.51;102610.75;4975852;28;20105;-87
2023/05/19 06:05:16;;;;;;;12.02;6.90;;;;;;;17.14;49.88;102547.59;4975486;28;20394;-84
2023/05/19 06:07:41;;;;;;;11.90;7.43;;;;;;;16.63;52.13;102567.28;4975175;28;20031;-84
2023/05/19 06:10:08;;;;;;;10.57;6.30;;;;;;;16.45;53.22;102617.94;4975389;28;20050;-88
2023/05/19 06:12:34;;;;;;;11.00;6.13;;;;;;;16.14;54.43;102579.81;4975275;28;20069;-87
2023/05/19 06:15:01;;;;;;;9.50;6.43;;;;;;;16.19;55.26;102616.84;4975500;28;20027;-84
2023/05/19 06:17:26;;;;;;;11.63;6.18;;;;;;;15.43;54.91;102543.88;4958219;28;20031;-82
2023/05/19 06:19:52;;;;;;;13.55;7.15;;;;;;;15.89;55.58;102622.06;4975605;28;20023;-84
2023/05/19 06:22:17;;;;;;;10.02;6.70;;;;;;;16.33;55.63;102625.56;4976419;28;20027;-81
2023/05/19 06:24:43;;;;;;;12.48;6.95;;;;;;;16.73;54.51;102619.78;4977211;28;20050;-87
2023/05/19 06:27:13;;;;;;;14.23;6.90;;;;;;;17.41;52.72;102619.91;4975565;28;20034;-84
2023/05/19 06:29:38;;;;;;;11.03;7.23;;;;;;;17.62;51.77;102615.91;4968872;28;20472;-95
2023/05/19 06:32:04;;;;;;;11.63;6.82;;;;;;;17.88;50.44;102613.38;4921042;29;20027;-92
2023/05/19 06:34:30;;;;;;;13.68;6.93;;;;;;;18.57;48.67;102626.13;4941360;29;20036;-92
2023/05/19 06:36:55;;;;;;;11.35;6.18;;;;;;;19.02;47.32;102605.63;4936877;29;20032;-93
2023/05/19 06:39:20;;;;;;;16.52;6.50;;;;;;;20.12;45.46;102615.94;4941370;29;20155;-94
2023/05/19 06:41:46;;;;;;;11.85;6.20;;;;;;;20.95;43.71;102630.66;4943110;29;20044;-93
2023/05/19 06:44:11;;;;;;;11.93;6.18;;;;;;;21.39;43.32;102588.53;4937726;29;20062;-79
2023/05/19 06:46:36;;;;;;;10.60;6.05;;;;;;;21.96;41.92;102618.06;4936166;29;20027;-76
2023/05/19 06:49:02;;;;;;;10.77;6.00;;;;;;;21.60;40.81;102572.81;4903320;29;20028;-78
2023/05/19 06:51:27;;;;;;;12.27;5.50;;;;;;;21.64;40.25;102581.28;4936195;29;20098;-78
2023/05/19 06:53:53;;;;;;;11.45;6.18;;;;;;;21.80;40.38;102586.94;4935999;29;20027;-77
2023/05/19 06:56:18;;;;;;;12.95;6.03;;;;;;;21.59;40.28;102568.50;4934275;29;20119;-80
2023/05/19 06:58:44;;;;;;;8.63;5.40;;;;;;;20.89;41.89;102587.31;4935943;29;20484;-84
2023/05/19 07:01:10;;;;;;;14.07;6.43;;;;;;;20.57;41.88;102619.53;4936119;29;20066;-76
2023/05/19 07:03:35;;;;;;;12.50;5.47;;;;;;;20.50;42.70;102613.06;4936329;29;20043;-76
2023/05/19 07:06:01;;;;;;;9.57;5.55;;;;;;;21.19;41.82;102613.75;4936345;29;20098;-80
2023/05/19 07:08:26;;;;;;;13.05;5.85;;;;;;;21.63;40.01;102584.84;4936506;29;20052;-85
2023/05/19 07:10:52;;;;;;;11.00;5.55;;;;;;;22.42;38.84;102611.59;4935712;29;20044;-77
2023/05/19 07:13:17;;;;;;;9.55;5.80;;;;;;;22.42;37.48;102608.97;4935796;29;20027;-77
2023/05/19 07:15:43;;;;;;;10.88;5.82;;;;;;;22.22;38.06;102619.41;4936421;29;20067;-81
2023/05/19 07:18:08;;;;;;;8.75;5.50;;;;;;;21.72;37.80;102563.06;4937080;29;20040;-86
2023/05/19 07:20:34;;;;;;;10.85;5.68;;;;;;;22.03;37.75;102587.66;4939194;29;20032;-79
2023/05/19 07:23:01;;;;;;;10.32;5.32;;;;;;;22.46;37.88;102615.66;4937417;29;20027;-79
2023/05/19 07:25:29;;;;;;;11.00;5.43;;;;;;;22.45;36.61;102585.84;4938485;29;20052;-77
2023/05/19 07:27:54;;;;;;;12.95;5.30;;;;;;;22.85;36.49;102611.41;4936218;29;20039;-77
2023/05/19 07:30:20;;;;;;;10.70;5.28;;;;;;;21.56;38.91;102612.63;4935746;29;20054;-80
2023/05/19 07:32:45;;;;;;;10.05;5.00;;;;;;;19.89;41.43;102604.56;4936468;29;20028;-91
2023/05/19 07:35:10;;;;;;;10.13;5.40;;;;;;;18.45;44.07;102571.22;4938350;29;20026;-82
2023/05/19 07:37:37;;;;;;;10.75;5.80;;;;;;;17.58;46.99;102580.44;4941052;29;20027;-89
2023/05/19 07:40:03;;;;;;;9.02;5.50;;;;;;;17.30;48.51;102622.31;4940525;29;20392;-82
2023/05/19 07:42:28;;;;;;;9.52;6.00;;;;;;;16.91;51.26;102616.03;4937807;29;20034;-88
2023/05/19 07:44:54;;;;;;;10.05;5.43;;;;;;;16.00;51.52;102554.53;4938902;29;20023;-84
2023/05/19 07:47:19;;;;;;;11.07;5.47;;;;;;;15.80;52.76;102579.13;4936855;29;20034;-91
2023/05/19 07:49:44;;;;;;;12.80;5.80;;;;;;;15.80;52.67;102606.94;4935593;29;20051;-92
2023/05/19 07:52:10;;;;;;;10.18;5.50;;;;;;;15.63;54.55;102577.50;4935750;29;20028;-89
2023/05/19 07:54:35;;;;;;;10.70;5.22;;;;;;;15.82;53.36;102605.09;4935582;29;20039;-80
2023/05/19 07:57:01;;;;;;;8.93;4.47;;;;;;;15.85;52.44;102604.94;4935454;29;20472;-92
2023/05/19 07:59:26;;;;;;;10.13;4.55;;;;;;;15.59;53.72;102572.50;4918154;29;20044;-80
2023/05/19 08:01:52;;;;;;;8.32;4.30;;;;;;;15.60;52.13;102571.56;4935613;29;20107;-80
2023/05/19 08:04:17;;;;;;;9.25;4.43;;;;;;;15.95;53.00;102604.31;4935448;29;20495;-90
2023/05/19 08:06:43;;;;;;;10.85;4.40;;;;;;;16.05;52.16;102604.63;4935154;29;20031;-78
2023/05/19 08:09:09;;;;;;;9.77;4.13;;;;;;;15.91;51.80;102578.50;4939173;29;20078;-93
2023/05/19 08:11:35;;;;;;;10.40;4.97;;;;;;;15.74;52.76;102582.09;4939472;29;20035;-90
2023/05/19 08:14:00;;;;;;;10.00;5.13;;;;;;;15.80;52.36;102586.94;4939345;29;20118;-91
2023/05/19 08:16:26;;;;;;;11.23;4.90;;;;;;;15.89;53.25;102589.03;4939530;29;20484;-78
2023/05/19 08:18:51;;;;;;;10.50;5.40;;;;;;;15.92;54.74;102562.78;4952647;28;20784;-77
2023/05/19 08:21:17;;;;;;;9.43;5.10;;;;;;;16.24;54.20;102592.22;4959288;29;20023;-82
2023/05/19 08:23:42;;;;;;;9.63;5.05;;;;;;;15.91;51.99;102534.22;4961605;29;20027;-81
2023/05/19 08:26:07;;;;;;;10.75;3.97;;;;;;;16.28;53.38;102574.59;4959189;29;20023;-79
2023/05/19 08:28:33;;;;;;;8.25;3.97;;;;;;;16.16;49.73;102557.09;4957693;29;20047;-81
2023/05/19 08:30:58;;;;;;;10.73;4.15;;;;;;;16.41;50.85;102588.59;4957880;29;20031;-76
2023/05/19 08:33:23;;;;;;;10.65;4.45;;;;;;;16.45;51.13;102560.56;4957777;29;20106;-78
2023/05/19 08:35:49;;;;;;;7.32;3.67;;;;;;;16.59;51.39;102552.75;4960248;29;20127;-81
2023/05/19 08:38:14;;;;;;;9.85;4.68;;;;;;;17.03;49.40;102578.75;4962053;29;20027;-79
2023/05/19 08:40:46;;;;;;;8.68;4.05;;;;;;;16.85;50.66;102528.53;4958155;29;20043;-77
2023/05/19 08:43:11;;;;;;;6.72;3.88;;;;;;;17.09;49.03;102546.19;4959111;29;20394;-79
2023/05/19 08:45:41;;;;;;;7.45;3.55;;;;;;;16.98;46.86;102519.94;4958810;29;20019;-89
2023/05/19 08:48:07;;;;;;;8.70;3.72;;;;;;;17.45;48.91;102556.06;4958223;29;20035;-79
2023/05/19 08:50:38;;;;;;;8.57;3.53;;;;;;;17.45;50.48;102537.78;4958939;29;20027;-81
2023/05/19 08:53:21;;;;;;;9.90;4.13;;;;;;;17.62;48.54;102562.81;4960720;29;20047;-86
2023/05/19 08:56:20;;;;;;;11.50;4.50;;;;;;;17.72;47.73;102566.53;4966652;28;20030;-78
2023/05/19 08:58:48;;;;;;;8.05;3.72;;;;;;;18.01;49.00;102560.22;4961521;28;20191;-86
2023/05/19 09:01:15;;;;;;;8.98;3.88;;;;;;;17.97;46.72;102523.91;4978357;28;20093;-85
2023/05/19 09:03:42;;;;;;;11.02;3.70;;;;;;;18.01;47.16;102530.63;4961779;28;20023;-81
2023/05/19 09:06:07;;;;;;;7.85;3.60;;;;;;;18.21;47.80;102548.41;4978555;28;20027;-92
2023/05/19 09:08:33;;;;;;;9.40;2.80;;;;;;;18.29;45.01;102550.50;4976969;28;20034;-89
2023/05/19 09:10:59;;;;;;;8.75;2.83;;;;;;;18.32;45.92;102539.84;4977543;28;20471;-79
2023/05/19 09:13:25;;;;;;;8.00;2.53;;;;;;;18.22;43.62;102517.88;4976714;28;20110;-91
2023/05/19 09:15:52;;;;;;;5.85;2.40;;;;;;;18.34;44.62;102517.84;4970922;28;20133;-86
2023/05/19 09:18:17;;;;;;;7.25;2.50;;;;;;;18.28;44.35;102492.13;4962770;28;20030;-94
2023/05/19 09:20:44;;;;;;;6.57;2.60;;;;;;;18.55;44.19;102535.63;4967601;28;20410;-93
2023/05/19 09:23:14;;;;;;;8.77;2.30;;;;;;;18.76;41.97;102528.06;4977157;28;20030;-94
2023/05/19 09:25:50;;;;;;;7.45;2.25;;;;;;;18.31;44.50;102425.72;4977697;28;20033;-93
2023/05/19 09:28:30;;;;;;;6.22;2.10;;;;;;;18.69;39.72;102534.72;4983085;28;20469;-92
2023/05/19 09:30:59;;;;;;;8.30;2.20;;;;;;;18.72;39.68;102529.25;4981932;28;20026;-92
2023/05/19 09:33:25;;;;;;;7.85;2.50;;;;;;;18.90;41.08;102517.47;4985694;28;20039;-93
2023/05/19 09:35:50;;;;;;;7.43;2.00;;;;;;;18.77;39.91;102522.72;4969036;28;20030;-94
2023/05/19 09:38:20;;;;;;;6.05;2.03;;;;;;;18.43;40.39;102516.38;4976864;28;20109;-92
2023/05/19 09:40:48;;;;;;;9.70;2.42;;;;;;;18.08;41.82;102494.44;4976387;28;20475;-86
2023/05/19 09:43:14;;;;;;;8.40;2.78;;;;;;;18.15;40.95;102519.22;4976312;28;20031;-90
2023/05/19 09:45:40;;;;;;;8.00;2.35;;;;;;;17.90;41.40;102520.91;4975899;28;20033;-88
2023/05/19 09:48:05;;;;;;;6.63;2.20;;;;;;;17.78;41.42;102503.41;4975901;28;20479;-88
2023/05/19 09:50:31;;;;;;;9.88;2.30;;;;;;;17.81;40.93;102518.91;4975959;28;20050;-81
2023/05/19 09:52:57;;;;;;;7.63;2.63;;;;;;;17.93;44.24;102532.91;4976118;28;20035;-85
2023/05/19 09:55:27;;;;;;;8.65;2.65;;;;;;;17.68;41.82;102495.31;4976137;28;20030;-92
2023/05/19 09:57:54;;;;;;;6.80;2.45;;;;;;;17.54;40.43;102473.66;4959610;28;20046;-81
2023/05/19 10:00:22;;;;;;;6.75;2.80;;;;;;;17.55;43.18;102491.84;4976417;28;20114;-93
2023/05/19 10:02:49;;;;;;;7.53;2.30;;;;;;;17.81;43.54;102525.91;4977109;28;20077;-93
2023/05/19 10:05:19;;;;;;;7.68;2.42;;;;;;;17.70;41.95;102521.38;4961105;28;20031;-89
2023/05/19 10:07:53;;;;;;;5.75;2.22;;;;;;;17.52;43.82;102512.13;4961852;28;20030;-92
2023/05/19 10:10:19;;;;;;;10.13;2.50;;;;;;;17.56;43.78;102517.03;4980682;28;20022;-89
2023/05/19 10:12:46;;;;;;;7.55;2.47;;;;;;;16.50;41.45;102371.59;4961878;28;20070;-81
2023/05/19 10:15:25;;;;;;;6.18;2.25;;;;;;;16.90;40.86;102479.50;4977139;28;20086;-83
2023/05/19 10:17:51;;;;;;;5.70;2.25;;;;;;;17.11;41.25;102519.06;4977005;28;20102;-87
2023/05/19 10:20:16;;;;;;;4.72;2.10;;;;;;;16.94;41.19;102485.38;4975327;28;20118;-87
2023/05/19 10:22:43;;;;;;;8.60;2.60;;;;;;;17.13;40.52;102519.81;4975393;28;20074;-90
2023/05/19 10:25:10;;;;;;;6.47;2.10;;;;;;;17.36;41.40;102505.25;4975237;28;20026;-89
2023/05/19 10:27:47;;;;;;;7.35;2.42;;;;;;;17.88;42.02;102514.06;4975563;28;20031;-92
2023/05/19 10:30:24;;;;;;;8.45;2.30;;;;;;;18.09;41.67;102519.63;4974569;28;20474;-89
2023/05/19 10:32:50;;;;;;;6.65;2.40;;;;;;;17.97;40.44;102516.91;4975604;28;20062;-88
2023/05/19 10:35:34;;;;;;;5.03;2.53;;;;;;;17.96;40.38;102517.84;4975548;28;20062;-92
2023/05/19 10:38:20;;;;;;;8.38;3.05;;;;;;;17.81;42.16;102511.06;4975826;28;20438;-85
2023/05/19 10:40:56;;;;;;;7.47;2.80;;;;;;;17.51;41.37;102464.25;4975094;28;20043;-84
2023/05/19 10:43:34;;;;;;;9.07;3.13;;;;;;;17.86;42.41;102495.88;4975287;28;20027;-84
2023/05/19 10:45:59;;;;;;;7.18;3.35;;;;;;;17.89;40.65;102494.84;4970471;28;20074;-87
2023/05/19 10:48:24;;;;;;;9.38;3.03;;;;;;;17.89;42.27;102479.16;4955477;29;20031;-78
2023/05/19 10:50:54;;;;;;;9.35;3.08;;;;;;;17.88;42.20;102467.03;4955586;29;20059;-82
2023/05/19 10:53:22;;;;;;;7.07;3.08;;;;;;;17.84;41.34;102448.13;4955915;29;20472;-87
2023/05/19 10:55:52;;;;;;;9.05;3.05;;;;;;;18.22;41.61;102492.56;4956948;29;20051;-88
2023/05/19 10:58:44;;;;;;;7.47;2.90;;;;;;;18.17;42.29;102486.78;4956754;29;20027;-90
2023/05/19 11:01:14;;;;;;;7.05;3.03;;;;;;;18.10;42.45;102495.19;4956415;29;20027;-84
2023/05/19 11:03:52;;;;;;;7.97;3.42;;;;;;;18.06;41.64;102497.16;4956125;29;20471;-87
2023/05/19 11:06:26;;;;;;;8.13;3.10;;;;;;;18.00;41.86;102487.97;4955254;29;20023;-80
2023/05/19 11:09:12;;;;;;;5.13;2.55;;;;;;;17.78;40.94;102464.19;4955047;29;20039;-78
2023/05/19 11:11:51;;;;;;;7.90;2.80;;;;;;;17.91;42.40;102454.59;4895931;29;20501;-80
2023/05/19 11:14:19;;;;;;;5.28;2.55;;;;;;;18.24;40.26;102484.59;4896461;29;20458;-79
2023/05/19 11:16:46;;;;;;;7.22;2.53;;;;;;;17.98;40.71;102434.09;4895953;29;20600;-84
2023/05/19 11:19:25;;;;;;;12.45;2.58;;;;;;;18.27;41.13;102448.59;4896097;29;20068;-80
2023/05/19 11:21:53;;;;;;;6.18;2.60;;;;;;;18.58;41.25;102478.69;4896018;28;20036;-90